createdAt,value
2018-09-22T11:37:16.936Z,504.00
2018-09-22T11:38:14.997Z,440.00
2018-09-22T11:39:13.188Z,492.00
2018-09-22T11:40:12.729Z,468.00
2018-09-22T11:41:12.679Z,476.00
2018-09-22T11:42:12.526Z,452.00
2018-09-22T11:42:57.214Z,464.00
2018-09-22T11:43:51.725Z,480.00
2018-09-22T11:44:51.849Z,476.00
2018-09-22T11:45:57.659Z,484.00
2018-09-22T11:46:53.304Z,492.00
2018-09-22T11:47:51.951Z,496.00
2018-09-22T11:48:51.440Z,492.00
2018-09-22T11:49:54.275Z,528.00
2018-09-22T11:50:51.370Z,444.00
2018-09-22T11:51:51.252Z,520.00
2018-09-22T11:52:53.661Z,540.00
2018-09-22T11:53:51.275Z,488.00
2018-09-22T11:54:54.532Z,548.00
2018-09-22T11:55:51.063Z,512.00
2018-09-22T11:56:55.776Z,188.00
2018-09-22T11:57:53.708Z,200.00
2018-09-22T12:00:23.298Z,204.00
2018-09-22T12:01:16.333Z,220.00
2018-09-22T12:05:13.540Z,80.00
2018-09-22T12:06:11.670Z,92.00
2018-09-22T12:07:11.162Z,96.00
2018-09-22T12:08:16.691Z,92.00
2018-09-22T12:09:14.022Z,52.00
2018-09-22T12:10:13.851Z,92.00
2018-09-22T12:11:12.287Z,20.00
2018-09-22T12:12:10.657Z,20.00
2018-09-22T12:13:10.580Z,20.00
2018-09-22T12:14:11.601Z,20.00
2018-09-22T12:15:10.481Z,16.00
2018-09-22T12:16:12.544Z,20.00
2018-09-22T12:17:09.848Z,16.00
2018-09-22T12:18:09.880Z,12.00
2018-09-22T12:19:10.112Z,12.00
2018-09-22T12:20:10.784Z,16.00
2018-09-22T12:21:10.855Z,16.00
2018-09-22T12:22:09.527Z,16.00
